Time;durP1;ratioP1;P1;durP2;ratioP2;P2;SDS_P1;SDS_P2;PMS_P1;PMS_P2;Temp;Humidity;BMP_temperature;BMP_pressure;BME280_temperature;BME280_humidity;BME280_pressure;Samples;Min_cycle;Max_cycle;Signal;HPM_P1;HPM_P2
2021/10/12 00:00:12;;;;;;;0.10;0.10;;;11.40;99.90;;;;;;5099150;28;20555;-81
2021/10/12 00:02:37;;;;;;;2.97;0.47;;;11.40;99.90;;;;;;5080591;28;20188;-80
2021/10/12 00:05:04;;;;;;;0.17;0.17;;;11.40;99.90;;;;;;5084026;28;20209;-81
2021/10/12 00:07:30;;;;;;;1.60;0.30;;;11.40;99.90;;;;;;5079983;28;20226;-81
2021/10/12 00:09:56;;;;;;;0.33;0.33;;;11.30;99.90;;;;;;5083222;28;20245;-81
2021/10/12 00:12:23;;;;;;;0.97;0.30;;;11.30;99.90;;;;;;5082611;28;20631;-81
2021/10/12 00:14:48;;;;;;;0.97;0.87;;;11.40;99.90;;;;;;5090398;28;20206;-80
2021/10/12 00:17:14;;;;;;;0.30;0.30;;;11.40;99.90;;;;;;5086633;28;20455;-81
2021/10/12 00:19:40;;;;;;;0.73;0.73;;;11.40;99.90;;;;;;5083657;28;20274;-81
2021/10/12 00:22:07;;;;;;;0.20;0.20;;;11.40;99.90;;;;;;5092800;28;20180;-82
2021/10/12 00:24:33;;;;;;;0.30;0.30;;;11.40;99.90;;;;;;5087320;28;20651;-81
2021/10/12 00:26:58;;;;;;;0.30;0.30;;;11.50;99.90;;;;;;5080029;28;20193;-81
2021/10/12 00:29:24;;;;;;;0.33;0.20;;;11.40;99.90;;;;;;5092731;28;20265;-80
2021/10/12 00:31:50;;;;;;;0.20;0.20;;;11.50;99.90;;;;;;5084630;28;20178;-81
2021/10/12 00:34:18;;;;;;;0.37;0.37;;;11.50;99.90;;;;;;5084343;28;20272;-81
2021/10/12 00:36:44;;;;;;;0.23;0.23;;;11.50;99.90;;;;;;5087793;28;20216;-81
2021/10/12 00:39:10;;;;;;;0.20;0.20;;;11.50;99.90;;;;;;5089004;28;20236;-81
2021/10/12 00:41:36;;;;;;;0.53;0.20;;;11.50;99.90;;;;;;5086471;28;20188;-81
2021/10/12 00:44:01;;;;;;;0.10;0.10;;;11.50;99.90;;;;;;5081851;28;20183;-80
2021/10/12 00:46:27;;;;;;;1.57;0.40;;;11.50;99.90;;;;;;5086791;28;20242;-80
2021/10/12 00:48:57;;;;;;;0.20;0.20;;;11.50;99.90;;;;;;5087744;28;20751;-81
2021/10/12 00:51:22;;;;;;;3.00;0.50;;;11.50;99.90;;;;;;5091951;28;20183;-81
2021/10/12 00:53:48;;;;;;;0.40;0.20;;;11.50;99.90;;;;;;5085987;28;20177;-81
2021/10/12 00:56:13;;;;;;;0.30;0.30;;;11.50;99.90;;;;;;5094664;28;20192;-81
2021/10/12 00:58:40;;;;;;;0.10;0.10;;;11.40;99.90;;;;;;5093930;28;20188;-81
2021/10/12 01:01:06;;;;;;;1.90;0.53;;;11.50;99.90;;;;;;5080904;28;20185;-82
2021/10/12 01:03:32;;;;;;;0.40;0.40;;;11.40;99.90;;;;;;5076706;28;20191;-81
2021/10/12 01:06:04;;;;;;;0.20;0.20;;;11.40;99.90;;;;;;5085030;28;20196;-80
2021/10/12 01:08:29;;;;;;;0.40;0.40;;;11.40;99.90;;;;;;5077463;28;20183;-81
2021/10/12 01:10:55;;;;;;;0.23;0.23;;;11.40;99.90;;;;;;5087517;28;20665;-81
2021/10/12 01:13:21;;;;;;;0.13;0.13;;;11.30;99.90;;;;;;5082670;28;20175;-81
2021/10/12 01:15:46;;;;;;;0.40;0.40;;;11.30;99.90;;;;;;5092440;28;20207;-80
2021/10/12 01:18:13;;;;;;;0.30;0.30;;;11.40;99.90;;;;;;5092800;28;20176;-81
2021/10/12 01:20:40;;;;;;;0.20;0.20;;;11.40;99.90;;;;;;5083034;28;20198;-81
2021/10/12 01:23:06;;;;;;;1.13;0.67;;;11.40;99.90;;;;;;5081820;28;20186;-80
2021/10/12 01:25:32;;;;;;;1.40;0.50;;;11.40;99.90;;;;;;5084632;28;20205;-80
2021/10/12 01:27:58;;;;;;;0.47;0.30;;;11.50;99.90;;;;;;5073849;28;20215;-81
2021/10/12 01:30:24;;;;;;;0.40;0.40;;;11.50;99.90;;;;;;5085507;28;20201;-81
2021/10/12 01:32:49;;;;;;;2.73;0.50;;;11.50;99.90;;;;;;5087595;28;20181;-82
2021/10/12 01:35:15;;;;;;;0.27;0.27;;;11.50;99.90;;;;;;5092474;28;20206;-81
2021/10/12 01:37:42;;;;;;;0.40;0.40;;;11.50;99.90;;;;;;5078393;28;20249;-81
2021/10/12 01:40:10;;;;;;;0.67;0.20;;;11.50;99.90;;;;;;5094057;28;20572;-81
2021/10/12 01:42:36;;;;;;;0.83;0.20;;;11.50;99.90;;;;;;5091366;28;20240;-81
2021/10/12 01:45:05;;;;;;;0.10;0.10;;;11.50;99.90;;;;;;5091350;28;20220;-80
2021/10/12 01:47:31;;;;;;;2.33;1.00;;;11.50;99.90;;;;;;5083218;28;20210;-81
2021/10/12 01:49:57;;;;;;;0.57;0.50;;;11.50;99.90;;;;;;5087236;28;20746;-80
2021/10/12 01:52:23;;;;;;;0.50;0.50;;;11.50;99.90;;;;;;5085248;28;20191;-81
2021/10/12 01:54:48;;;;;;;0.77;0.40;;;11.60;99.90;;;;;;5080474;28;20174;-81
2021/10/12 01:57:14;;;;;;;0.57;0.43;;;11.50;99.90;;;;;;5085764;28;20191;-81
2021/10/12 01:59:40;;;;;;;0.63;0.63;;;11.50;99.90;;;;;;5084840;28;20207;-81
2021/10/12 02:02:05;;;;;;;0.40;0.40;;;11.50;99.90;;;;;;5085607;28;20195;-81
2021/10/12 02:04:32;;;;;;;0.60;0.30;;;11.50;99.90;;;;;;5087682;28;20180;-81
2021/10/12 02:06:58;;;;;;;0.27;0.27;;;11.50;99.90;;;;;;5076830;28;20177;-81
2021/10/12 02:09:24;;;;;;;0.90;0.90;;;11.50;99.90;;;;;;5084541;28;20207;-81
2021/10/12 02:11:49;;;;;;;0.47;0.47;;;11.50;99.90;;;;;;5073206;28;20642;-81
2021/10/12 02:14:15;;;;;;;0.30;0.30;;;11.40;99.90;;;;;;5083558;28;20177;-81
2021/10/12 02:16:41;;;;;;;0.97;0.93;;;11.50;99.90;;;;;;5075975;28;20209;-82
2021/10/12 02:19:07;;;;;;;0.27;0.27;;;11.40;99.90;;;;;;5073762;28;20202;-81
2021/10/12 02:21:32;;;;;;;0.87;0.20;;;11.40;99.90;;;;;;5083497;28;20251;-81
2021/10/12 02:23:58;;;;;;;0.23;0.23;;;11.40;99.90;;;;;;5092443;28;20174;-80
2021/10/12 02:26:24;;;;;;;2.47;0.70;;;11.40;99.90;;;;;;5087771;28;20232;-81
2021/10/12 02:28:50;;;;;;;0.40;0.40;;;11.40;99.90;;;;;;5072597;28;20230;-82
2021/10/12 02:31:16;;;;;;;0.67;0.50;;;11.40;99.90;;;;;;5091414;28;20272;-80
2021/10/12 02:33:41;;;;;;;0.30;0.30;;;11.40;99.90;;;;;;5075973;28;20206;-81
2021/10/12 02:36:07;;;;;;;0.10;0.10;;;11.40;99.90;;;;;;5080380;28;20203;-81
2021/10/12 02:38:33;;;;;;;0.77;0.57;;;11.40;99.90;;;;;;5071999;28;20223;-81
2021/10/12 02:40:58;;;;;;;1.00;0.53;;;11.40;99.90;;;;;;5086541;28;20242;-81
2021/10/12 02:43:24;;;;;;;0.50;0.50;;;11.40;99.90;;;;;;5085741;28;20262;-80
2021/10/12 02:45:50;;;;;;;0.37;0.37;;;11.40;99.90;;;;;;5088687;28;20210;-81
2021/10/12 02:48:16;;;;;;;0.40;0.40;;;11.40;99.90;;;;;;5082645;28;20181;-81
2021/10/12 02:50:43;;;;;;;0.60;0.50;;;11.40;99.90;;;;;;5069616;28;20198;-81
2021/10/12 02:53:10;;;;;;;0.50;0.40;;;11.40;99.90;;;;;;5082442;28;20176;-81
2021/10/12 02:55:36;;;;;;;1.13;0.37;;;11.40;99.90;;;;;;5085579;28;20197;-81
2021/10/12 02:58:01;;;;;;;4.63;0.37;;;11.40;99.90;;;;;;5081038;28;20601;-81
2021/10/12 03:00:27;;;;;;;0.30;0.20;;;11.40;99.90;;;;;;5089389;28;20195;-82
2021/10/12 03:02:52;;;;;;;1.20;1.20;;;11.40;99.90;;;;;;5082151;28;20846;-81
2021/10/12 03:05:18;;;;;;;0.80;0.50;;;11.40;99.90;;;;;;5088961;28;20220;-81
2021/10/12 03:07:44;;;;;;;1.50;1.30;;;11.50;99.90;;;;;;5096812;28;20183;-81
2021/10/12 03:10:10;;;;;;;0.63;0.60;;;11.40;99.90;;;;;;5091956;28;20683;-82
2021/10/12 03:12:36;;;;;;;0.47;0.47;;;11.40;99.90;;;;;;5072034;28;20189;-81
2021/10/12 03:15:02;;;;;;;0.40;0.33;;;11.40;99.90;;;;;;5091337;28;20203;-81
2021/10/12 03:17:28;;;;;;;0.50;0.50;;;11.40;99.90;;;;;;5082257;28;20193;-81
2021/10/12 03:19:53;;;;;;;0.73;0.73;;;11.40;99.90;;;;;;5086004;28;20192;-80
2021/10/12 03:22:19;;;;;;;1.40;0.50;;;11.40;99.90;;;;;;5082523;28;20531;-81
2021/10/12 03:24:45;;;;;;;0.43;0.43;;;11.40;99.90;;;;;;5075319;28;20243;-81
2021/10/12 03:27:11;;;;;;;1.03;0.50;;;11.40;99.90;;;;;;5080523;28;20282;-80
2021/10/12 03:29:37;;;;;;;0.50;0.50;;;11.40;99.90;;;;;;5072623;28;20241;-81
2021/10/12 03:32:03;;;;;;;0.33;0.33;;;11.30;99.90;;;;;;5080534;28;20195;-80
2021/10/12 03:34:30;;;;;;;0.37;0.37;;;11.30;99.90;;;;;;5057305;28;20204;-82
2021/10/12 03:36:57;;;;;;;0.87;0.70;;;11.30;99.90;;;;;;5079794;28;20209;-82
2021/10/12 03:39:24;;;;;;;0.80;0.80;;;11.30;99.90;;;;;;5071329;28;20263;-83
2021/10/12 03:41:50;;;;;;;0.80;0.60;;;11.30;99.90;;;;;;5074116;28;20190;-82
2021/10/12 03:44:16;;;;;;;0.40;0.40;;;11.30;99.90;;;;;;5079440;28;20180;-81
2021/10/12 03:46:42;;;;;;;0.87;0.50;;;11.20;99.90;;;;;;5090736;28;20679;-81
2021/10/12 03:49:08;;;;;;;0.87;0.40;;;11.20;99.90;;;;;;5080617;28;20215;-80
2021/10/12 03:51:34;;;;;;;1.47;0.67;;;11.20;99.90;;;;;;5088669;28;20616;-82
2021/10/12 03:53:59;;;;;;;0.40;0.40;;;11.20;99.90;;;;;;5082296;28;20633;-81
2021/10/12 03:56:25;;;;;;;0.57;0.57;;;11.10;99.90;;;;;;5072846;28;20228;-81
2021/10/12 03:58:51;;;;;;;0.63;0.63;;;11.20;99.90;;;;;;5058199;28;20530;-81
2021/10/12 04:01:16;;;;;;;0.30;0.30;;;11.20;99.90;;;;;;5059216;28;20187;-81
2021/10/12 04:03:44;;;;;;;0.30;0.30;;;11.10;99.90;;;;;;5063995;28;20186;-81
2021/10/12 04:06:10;;;;;;;0.37;0.37;;;11.20;99.90;;;;;;5063793;28;20215;-82
2021/10/12 04:08:36;;;;;;;1.40;0.63;;;11.20;99.90;;;;;;5072730;28;20581;-82
2021/10/12 04:11:02;;;;;;;0.33;0.33;;;11.20;99.90;;;;;;5075394;28;20302;-82
2021/10/12 04:13:27;;;;;;;0.50;0.43;;;11.20;99.90;;;;;;5058347;28;20185;-81
2021/10/12 04:15:53;;;;;;;0.47;0.27;;;11.20;99.90;;;;;;5070048;28;20210;-81
2021/10/12 04:18:18;;;;;;;0.50;0.40;;;11.30;99.90;;;;;;5053134;28;20549;-81
2021/10/12 04:20:44;;;;;;;0.97;0.50;;;11.20;99.90;;;;;;5080353;28;20244;-81
2021/10/12 04:23:11;;;;;;;1.07;0.97;;;11.30;99.90;;;;;;5080419;28;20190;-82
2021/10/12 04:25:39;;;;;;;0.30;0.30;;;11.30;99.90;;;;;;5074235;28;20228;-81
2021/10/12 04:28:10;;;;;;;0.53;0.53;;;11.30;99.90;;;;;;5077461;28;20658;-81
2021/10/12 04:30:35;;;;;;;2.53;0.67;;;11.30;99.90;;;;;;5075006;28;20218;-81
2021/10/12 04:33:01;;;;;;;0.77;0.77;;;11.30;99.90;;;;;;5079541;28;20710;-82
2021/10/12 04:35:27;;;;;;;0.20;0.20;;;11.20;99.90;;;;;;5068615;28;20554;-83
2021/10/12 04:37:52;;;;;;;0.10;0.10;;;11.20;99.90;;;;;;5064639;28;20184;-82
2021/10/12 04:40:18;;;;;;;0.33;0.33;;;11.20;99.90;;;;;;5066494;28;20191;-82
2021/10/12 04:42:44;;;;;;;1.90;0.57;;;11.20;99.90;;;;;;5067344;28;20597;-82
2021/10/12 04:45:09;;;;;;;0.80;0.60;;;11.10;99.90;;;;;;5061736;28;21056;-82
2021/10/12 04:47:35;;;;;;;0.53;0.53;;;11.20;99.90;;;;;;5075519;28;20258;-82
2021/10/12 04:50:01;;;;;;;0.60;0.47;;;11.10;99.90;;;;;;5087836;28;20196;-81
2021/10/12 04:52:26;;;;;;;0.50;0.50;;;11.10;99.90;;;;;;5082905;28;20175;-81
2021/10/12 04:54:52;;;;;;;0.40;0.40;;;11.10;99.90;;;;;;5073394;28;20668;-81
2021/10/12 04:57:17;;;;;;;0.20;0.20;;;11.00;99.90;;;;;;5078783;28;20214;-81
2021/10/12 04:59:43;;;;;;;0.93;0.87;;;11.10;99.90;;;;;;5086606;28;20211;-81
2021/10/12 05:02:08;;;;;;;1.90;0.60;;;11.00;99.90;;;;;;5075772;28;20182;-81
2021/10/12 05:04:34;;;;;;;0.53;0.53;;;11.00;99.90;;;;;;5089222;28;20178;-81
2021/10/12 05:06:59;;;;;;;0.30;0.30;;;10.90;99.90;;;;;;5081903;28;20174;-80
2021/10/12 05:09:25;;;;;;;0.30;0.30;;;10.90;99.90;;;;;;5082859;28;20211;-81
2021/10/12 05:11:51;;;;;;;0.17;0.17;;;10.90;99.90;;;;;;5087877;28;20184;-81
2021/10/12 05:14:18;;;;;;;0.33;0.20;;;10.90;99.90;;;;;;5074421;28;20234;-82
2021/10/12 05:16:44;;;;;;;0.10;0.10;;;10.90;99.90;;;;;;5071210;28;20193;-83
2021/10/12 05:19:10;;;;;;;2.00;1.90;;;10.90;99.90;;;;;;5076480;28;20664;-83
2021/10/12 05:21:35;;;;;;;0.23;0.23;;;11.00;99.90;;;;;;5084115;28;20227;-82
2021/10/12 05:24:01;;;;;;;1.03;0.77;;;11.00;99.90;;;;;;5080474;28;20337;-80
2021/10/12 05:26:27;;;;;;;0.43;0.43;;;11.00;99.90;;;;;;5088341;28;20229;-81
2021/10/12 05:28:53;;;;;;;0.30;0.30;;;11.10;99.90;;;;;;5068883;28;20872;-82
2021/10/12 05:31:20;;;;;;;1.37;0.70;;;11.10;99.90;;;;;;5063631;28;20192;-81
2021/10/12 05:33:46;;;;;;;1.03;0.47;;;11.10;99.90;;;;;;5070089;28;20180;-82
2021/10/12 05:36:12;;;;;;;1.47;1.23;;;11.10;99.90;;;;;;5086293;28;20350;-81
2021/10/12 05:38:38;;;;;;;0.20;0.20;;;11.00;99.90;;;;;;5071855;28;20210;-81
2021/10/12 05:41:04;;;;;;;0.50;0.33;;;11.00;99.90;;;;;;5074342;28;20552;-82
2021/10/12 05:43:29;;;;;;;0.40;0.40;;;11.00;99.90;;;;;;5076470;28;20189;-82
2021/10/12 05:45:55;;;;;;;0.63;0.30;;;11.00;99.90;;;;;;5068659;28;20214;-84
2021/10/12 05:48:21;;;;;;;0.50;0.50;;;10.90;99.90;;;;;;5080541;28;20188;-83
2021/10/12 05:50:47;;;;;;;0.37;0.33;;;10.90;99.90;;;;;;5079365;28;20204;-83
2021/10/12 05:53:33;;;;;;;0.33;0.33;;;10.90;99.90;;;;;;5083691;28;20228;-82
2021/10/12 05:56:08;;;;;;;0.20;0.20;;;10.80;99.90;;;;;;5071529;28;20294;-81
2021/10/12 06:01:11;;;;;;;0.30;0.30;;;10.80;99.90;;;;;;5079449;28;20185;-83
2021/10/12 06:03:37;;;;;;;0.30;0.30;;;10.80;99.90;;;;;;5090247;28;20188;-83
2021/10/12 06:06:03;;;;;;;5.00;0.70;;;10.80;99.90;;;;;;5081319;28;20730;-83
2021/10/12 06:08:30;;;;;;;0.47;0.40;;;10.90;99.90;;;;;;5078944;28;20187;-83
2021/10/12 06:11:01;;;;;;;0.43;0.43;;;10.90;99.90;;;;;;5087269;28;20241;-83
2021/10/12 06:13:27;;;;;;;0.30;0.20;;;10.90;99.90;;;;;;5088831;28;20179;-83
2021/10/12 06:15:53;;;;;;;0.17;0.10;;;10.90;99.90;;;;;;5082436;28;20212;-84
2021/10/12 06:18:21;;;;;;;0.53;0.37;;;11.00;99.90;;;;;;5074850;28;20557;-83
2021/10/12 06:20:48;;;;;;;0.63;0.30;;;11.00;99.90;;;;;;5078962;28;20187;-83
2021/10/12 06:23:14;;;;;;;1.73;0.97;;;11.10;99.90;;;;;;5068738;28;20192;-83
2021/10/12 06:25:40;;;;;;;1.20;1.13;;;11.10;99.90;;;;;;5082452;28;20203;-83
2021/10/12 06:28:06;;;;;;;0.10;0.10;;;11.20;99.90;;;;;;5072246;28;20196;-83
2021/10/12 06:30:34;;;;;;;0.10;0.10;;;11.20;99.90;;;;;;5082739;28;20274;-83
2021/10/12 06:33:00;;;;;;;0.17;0.13;;;11.20;99.90;;;;;;5092461;28;20187;-83
2021/10/12 06:35:29;;;;;;;0.20;0.20;;;11.30;99.90;;;;;;5082781;28;20204;-83
2021/10/12 06:37:55;;;;;;;0.10;0.10;;;11.40;99.90;;;;;;5086442;28;20179;-83
2021/10/12 06:40:21;;;;;;;0.23;0.23;;;11.50;99.90;;;;;;5087656;28;20188;-83
2021/10/12 06:42:47;;;;;;;3.77;0.70;;;11.50;99.90;;;;;;5086338;28;20191;-83
2021/10/12 06:45:16;;;;;;;0.20;0.20;;;11.60;99.90;;;;;;5079479;28;20223;-83
2021/10/12 06:47:41;;;;;;;0.20;0.20;;;11.60;99.90;;;;;;5088282;28;20190;-83
2021/10/12 06:50:07;;;;;;;0.80;0.80;;;11.60;99.90;;;;;;5081023;28;20259;-84
2021/10/12 06:52:33;;;;;;;0.57;0.20;;;11.60;99.90;;;;;;5084653;28;20183;-84
2021/10/12 06:54:59;;;;;;;0.50;0.50;;;11.60;99.90;;;;;;5079354;28;20202;-82
2021/10/12 06:57:24;;;;;;;0.37;0.37;;;11.60;99.90;;;;;;5070258;28;20652;-82
2021/10/12 06:59:50;;;;;;;0.30;0.30;;;11.70;99.90;;;;;;5079458;28;20218;-82
2021/10/12 07:02:15;;;;;;;0.47;0.27;;;11.70;99.90;;;;;;5083336;28;20188;-83
2021/10/12 07:04:41;;;;;;;0.30;0.30;;;11.70;99.90;;;;;;5066564;28;20616;-83
2021/10/12 07:07:07;;;;;;;0.50;0.50;;;11.70;99.90;;;;;;5085092;28;20176;-82
2021/10/12 07:09:32;;;;;;;0.10;0.10;;;11.70;99.90;;;;;;5082307;28;20196;-82
2021/10/12 07:11:58;;;;;;;0.40;0.40;;;11.70;99.90;;;;;;5099246;28;20180;-81
2021/10/12 07:14:24;;;;;;;1.20;0.53;;;11.70;99.90;;;;;;5070869;28;20642;-82
2021/10/12 07:16:49;;;;;;;0.77;0.77;;;11.70;99.90;;;;;;5076078;28;20213;-81
2021/10/12 07:19:15;;;;;;;0.10;0.10;;;11.80;99.90;;;;;;5085138;28;20320;-81
2021/10/12 07:21:41;;;;;;;0.10;0.10;;;11.80;99.90;;;;;;5091811;28;20183;-81
2021/10/12 07:24:06;;;;;;;0.30;0.30;;;11.90;99.90;;;;;;5088025;28;20549;-82
2021/10/12 07:26:32;;;;;;;0.33;0.33;;;12.00;99.90;;;;;;5072278;28;20211;-81
2021/10/12 07:28:59;;;;;;;0.97;0.53;;;12.00;99.90;;;;;;5072780;28;20202;-82
2021/10/12 07:31:25;;;;;;;0.20;0.20;;;11.90;99.90;;;;;;5072217;28;20182;-82
2021/10/12 07:33:52;;;;;;;0.27;0.27;;;12.00;99.90;;;;;;5090422;28;20316;-81
2021/10/12 07:36:17;;;;;;;0.20;0.20;;;11.90;99.90;;;;;;5085295;28;20304;-81
2021/10/12 07:38:43;;;;;;;0.20;0.20;;;11.90;99.90;;;;;;5075394;28;20274;-82
2021/10/12 07:41:09;;;;;;;0.20;0.20;;;11.90;99.90;;;;;;5073744;28;20187;-81
2021/10/12 07:43:35;;;;;;;0.10;0.10;;;12.00;99.90;;;;;;5073817;28;20217;-83
2021/10/12 07:46:00;;;;;;;0.30;0.30;;;12.00;99.90;;;;;;5085215;28;20644;-82
2021/10/12 07:48:26;;;;;;;0.30;0.30;;;12.10;99.90;;;;;;5079097;28;20186;-82
2021/10/12 07:50:52;;;;;;;0.40;0.20;;;12.10;99.90;;;;;;5076477;28;20203;-82
2021/10/12 07:53:18;;;;;;;0.10;0.10;;;12.10;99.90;;;;;;5073347;28;20192;-81
2021/10/12 07:55:47;;;;;;;0.20;0.20;;;12.20;99.90;;;;;;5078765;28;20276;-82
2021/10/12 07:58:13;;;;;;;0.57;0.23;;;12.20;99.90;;;;;;5065376;28;20181;-82
2021/10/12 08:00:39;;;;;;;0.20;0.20;;;12.30;99.90;;;;;;5085561;28;20185;-81
2021/10/12 08:03:05;;;;;;;0.40;0.40;;;12.30;99.90;;;;;;5073470;28;20671;-83
2021/10/12 08:05:32;;;;;;;0.37;0.37;;;12.40;99.90;;;;;;5079000;28;20218;-82
2021/10/12 08:07:58;;;;;;;0.67;0.63;;;12.60;99.90;;;;;;5084649;28;20535;-82
2021/10/12 08:10:24;;;;;;;0.20;0.20;;;12.50;99.90;;;;;;5083193;28;20294;-81
2021/10/12 08:12:55;;;;;;;0.10;0.10;;;12.60;99.90;;;;;;5090362;28;20264;-82
2021/10/12 08:15:21;;;;;;;0.50;0.20;;;12.50;99.90;;;;;;5079426;28;20280;-81
2021/10/12 08:17:47;;;;;;;0.37;0.30;;;12.60;99.90;;;;;;5076911;28;20176;-81
2021/10/12 08:20:13;;;;;;;0.20;0.20;;;12.70;99.90;;;;;;5085918;28;20857;-83
2021/10/12 08:22:39;;;;;;;0.13;0.13;;;12.60;99.90;;;;;;5074596;28;20179;-82
2021/10/12 08:25:08;;;;;;;0.10;0.10;;;12.50;99.90;;;;;;5088271;28;20219;-83
2021/10/12 08:27:38;;;;;;;0.20;0.20;;;12.50;99.90;;;;;;5096318;28;20690;-82
2021/10/12 08:30:08;;;;;;;0.33;0.33;;;12.40;99.90;;;;;;5084772;28;20192;-81
2021/10/12 08:32:34;;;;;;;0.27;0.13;;;12.30;99.90;;;;;;5079757;28;20185;-83
2021/10/12 08:35:00;;;;;;;0.30;0.30;;;12.30;99.90;;;;;;5079861;28;20189;-83
2021/10/12 08:37:26;;;;;;;0.30;0.30;;;12.20;99.90;;;;;;5080889;28;20185;-82
2021/10/12 08:39:51;;;;;;;0.23;0.23;;;12.20;99.90;;;;;;5090372;28;20182;-82
2021/10/12 08:42:26;;;;;;;0.10;0.10;;;12.20;99.90;;;;;;5091891;28;20238;-83
2021/10/12 08:44:58;;;;;;;0.87;0.87;;;12.30;99.90;;;;;;5065273;28;20667;-82
2021/10/12 08:47:26;;;;;;;0.23;0.23;;;12.20;99.90;;;;;;5070578;28;20227;-83
2021/10/12 08:49:53;;;;;;;0.60;0.60;;;12.30;99.90;;;;;;5065600;28;20204;-81
2021/10/12 08:52:20;;;;;;;0.40;0.40;;;12.20;99.90;;;;;;5069956;28;20220;-81
2021/10/12 08:54:48;;;;;;;0.13;0.13;;;12.20;99.90;;;;;;5051810;28;20178;-81
2021/10/12 08:57:28;;;;;;;0.40;0.40;;;12.60;99.90;;;;;;5055795;28;20200;-80
2021/10/12 08:59:56;;;;;;;0.13;0.13;;;12.90;99.90;;;;;;5058166;28;20901;-81
2021/10/12 09:02:25;;;;;;;0.40;0.40;;;13.00;99.90;;;;;;5078734;28;20182;-81
2021/10/12 09:04:52;;;;;;;0.47;0.47;;;13.10;99.90;;;;;;5064471;28;20188;-81
2021/10/12 09:07:19;;;;;;;0.30;0.30;;;13.00;99.90;;;;;;5072941;28;20188;-82
2021/10/12 09:09:45;;;;;;;0.20;0.20;;;13.10;99.90;;;;;;5081811;28;20216;-80
2021/10/12 09:12:11;;;;;;;4.63;0.50;;;13.30;99.90;;;;;;5072683;28;20753;-82
2021/10/12 09:14:57;;;;;;;0.30;0.30;;;13.30;99.90;;;;;;5070842;28;20179;-81
2021/10/12 09:17:34;;;;;;;0.57;0.20;;;13.10;99.90;;;;;;5077563;28;20197;-80
2021/10/12 09:20:01;;;;;;;5.33;0.60;;;13.20;99.90;;;;;;5057497;28;20195;-80
2021/10/12 09:22:27;;;;;;;0.40;0.40;;;13.20;99.90;;;;;;5060642;28;20183;-81
2021/10/12 09:25:04;;;;;;;0.40;0.40;;;13.20;99.90;;;;;;5073567;28;22189;-81
2021/10/12 09:27:57;;;;;;;0.10;0.10;;;13.40;99.90;;;;;;5075297;28;20191;-82
2021/10/12 09:30:28;;;;;;;0.13;0.13;;;13.50;99.90;;;;;;5064459;28;20212;-82
2021/10/12 09:33:18;;;;;;;0.53;0.53;;;13.50;99.90;;;;;;5058845;28;20564;-82
2021/10/12 09:35:44;;;;;;;0.40;0.40;;;13.40;99.90;;;;;;5094568;28;20201;-83
2021/10/12 09:38:11;;;;;;;0.10;0.10;;;13.40;99.90;;;;;;5056887;28;20203;-82
2021/10/12 09:40:43;;;;;;;1.80;0.50;;;13.40;99.90;;;;;;5079131;28;20849;-82
2021/10/12 09:43:08;;;;;;;0.37;0.37;;;13.70;99.90;;;;;;5075091;28;20681;-82
2021/10/12 09:45:42;;;;;;;0.30;0.30;;;13.90;99.90;;;;;;5076131;28;20215;-82
2021/10/12 09:48:34;;;;;;;0.40;0.30;;;13.90;99.90;;;;;;5088296;28;20196;-82
2021/10/12 09:51:16;;;;;;;0.43;0.43;;;14.00;99.90;;;;;;5065502;28;20297;-81
2021/10/12 09:53:44;;;;;;;0.20;0.20;;;14.10;99.90;;;;;;5078072;28;20184;-82
2021/10/12 09:56:10;;;;;;;0.30;0.30;;;14.20;99.90;;;;;;5071310;28;20211;-82
2021/10/12 09:58:37;;;;;;;0.30;0.30;;;14.20;99.90;;;;;;5069855;28;20189;-82
2021/10/12 10:01:06;;;;;;;0.40;0.40;;;14.10;99.90;;;;;;5074839;28;20174;-82
2021/10/12 10:03:33;;;;;;;0.23;0.23;;;14.10;99.90;;;;;;5062506;28;20187;-82
2021/10/12 10:06:04;;;;;;;0.27;0.27;;;14.00;99.90;;;;;;5074579;28;20245;-81
2021/10/12 10:08:30;;;;;;;0.30;0.27;;;14.00;99.90;;;;;;5066412;28;20273;-83
2021/10/12 10:10:59;;;;;;;0.37;0.37;;;13.90;99.90;;;;;;5066174;28;20265;-83
2021/10/12 10:13:26;;;;;;;0.40;0.40;;;13.90;99.90;;;;;;5070940;28;20269;-81
2021/10/12 10:15:54;;;;;;;0.73;0.73;;;13.80;99.90;;;;;;5071848;28;20719;-82
2021/10/12 10:18:21;;;;;;;0.20;0.20;;;13.80;99.90;;;;;;5077852;28;20191;-82
2021/10/12 10:20:53;;;;;;;0.40;0.40;;;13.80;99.90;;;;;;5077579;28;20197;-82
2021/10/12 10:24:01;;;;;;;0.20;0.20;;;13.80;99.90;;;;;;5070724;28;20192;-82
2021/10/12 10:26:32;;;;;;;0.30;0.20;;;13.70;99.90;;;;;;5074169;28;20212;-82
2021/10/12 10:29:23;;;;;;;0.10;0.10;;;13.70;99.90;;;;;;5074211;28;20189;-82
2021/10/12 10:31:52;;;;;;;0.57;0.53;;;13.70;99.90;;;;;;5086761;28;20185;-81
2021/10/12 10:34:40;;;;;;;0.10;0.10;;;13.60;99.90;;;;;;5076259;28;20184;-82
2021/10/12 10:37:18;;;;;;;0.10;0.10;;;13.60;99.90;;;;;;5071772;28;20184;-83
2021/10/12 10:39:55;;;;;;;0.20;0.20;;;13.60;99.90;;;;;;5069156;28;20267;-81
2021/10/12 10:42:27;;;;;;;0.40;0.40;;;13.50;99.90;;;;;;5087674;28;20274;-81
2021/10/12 10:45:01;;;;;;;0.57;0.20;;;13.40;99.90;;;;;;5084537;28;20223;-83
2021/10/12 10:47:45;;;;;;;0.17;0.17;;;13.40;99.90;;;;;;5083491;28;20270;-81
2021/10/12 10:50:15;;;;;;;0.10;0.10;;;13.60;99.90;;;;;;5081671;28;20265;-82
2021/10/12 10:52:48;;;;;;;0.20;0.20;;;13.70;99.90;;;;;;5074251;28;20188;-82
2021/10/12 10:55:24;;;;;;;0.10;0.10;;;14.00;99.90;;;;;;5064607;28;20208;-82
2021/10/12 10:58:06;;;;;;;0.60;0.60;;;13.90;99.90;;;;;;5065179;28;20172;-82
2021/10/12 11:00:49;;;;;;;0.30;0.30;;;14.00;99.90;;;;;;5065734;28;20184;-83
2021/10/12 11:03:36;;;;;;;0.67;0.40;;;13.90;99.90;;;;;;5076459;28;20272;-82
2021/10/12 11:06:11;;;;;;;0.10;0.10;;;13.80;99.90;;;;;;5079703;28;20302;-83
2021/10/12 11:08:40;;;;;;;0.10;0.10;;;13.70;99.90;;;;;;5062074;28;20213;-82
2021/10/12 11:11:08;;;;;;;0.30;0.30;;;13.60;99.90;;;;;;5082904;28;20196;-81
2021/10/12 11:13:41;;;;;;;0.20;0.20;;;13.60;99.90;;;;;;5066049;28;20185;-82
2021/10/12 11:16:17;;;;;;;0.30;0.30;;;13.60;99.90;;;;;;5065869;28;20206;-82
2021/10/12 11:18:45;;;;;;;0.10;0.10;;;13.70;99.90;;;;;;5079900;28;20188;-82
2021/10/12 11:21:13;;;;;;;0.20;0.20;;;13.80;99.90;;;;;;5071552;28;20223;-82
2021/10/12 11:23:49;;;;;;;0.50;0.50;;;14.00;99.90;;;;;;5085859;28;20196;-82
2021/10/12 11:26:17;;;;;;;0.20;0.20;;;14.20;99.90;;;;;;5071062;28;20234;-82
2021/10/12 11:28:52;;;;;;;0.87;0.83;;;14.10;99.90;;;;;;5079874;28;20185;-82
2021/10/12 11:31:20;;;;;;;0.33;0.33;;;14.20;99.90;;;;;;5085708;28;20214;-81
2021/10/12 11:33:47;;;;;;;0.63;0.63;;;14.40;99.90;;;;;;5095824;28;20180;-82
2021/10/12 11:36:18;;;;;;;0.17;0.17;;;14.40;99.90;;;;;;5069978;28;20215;-82
2021/10/12 11:38:45;;;;;;;0.20;0.20;;;14.40;99.90;;;;;;5070588;28;20661;-82
2021/10/12 11:41:12;;;;;;;0.10;0.10;;;14.50;99.90;;;;;;5083021;28;21870;-82
2021/10/12 11:43:40;;;;;;;0.10;0.10;;;14.80;99.90;;;;;;5075143;28;20192;-83
2021/10/12 11:46:05;;;;;;;0.10;0.10;;;14.80;99.90;;;;;;5075926;28;20208;-82
2021/10/12 11:48:36;;;;;;;0.20;0.20;;;14.90;99.90;;;;;;5062687;28;20192;-82
2021/10/12 11:51:14;;;;;;;0.90;0.33;;;14.80;99.90;;;;;;5064453;28;20227;-82
2021/10/12 11:53:42;;;;;;;0.33;0.33;;;14.60;99.90;;;;;;5066181;28;20280;-82
2021/10/12 11:56:09;;;;;;;0.23;0.23;;;14.50;99.90;;;;;;5067380;28;20498;-83
2021/10/12 11:58:36;;;;;;;0.40;0.40;;;14.40;99.90;;;;;;5062545;28;20189;-83
2021/10/12 12:01:03;;;;;;;0.30;0.20;;;14.40;99.90;;;;;;5067810;28;20192;-83
2021/10/12 12:03:28;;;;;;;0.10;0.10;;;14.40;99.90;;;;;;5060648;28;20211;-80
2021/10/12 12:05:55;;;;;;;0.10;0.10;;;14.40;99.90;;;;;;5072262;28;20200;-80
2021/10/12 12:08:23;;;;;;;0.10;0.10;;;14.40;99.90;;;;;;5085535;28;20184;-80
2021/10/12 12:10:50;;;;;;;2.37;0.53;;;14.30;99.90;;;;;;5092410;28;20252;-80
2021/10/12 12:13:16;;;;;;;0.27;0.27;;;14.10;99.90;;;;;;5079453;28;20183;-80
2021/10/12 12:15:42;;;;;;;0.63;0.63;;;14.00;99.90;;;;;;5070041;28;20690;-80
2021/10/12 12:18:12;;;;;;;0.83;0.30;;;13.80;99.90;;;;;;5077087;28;20180;-80
2021/10/12 12:20:58;;;;;;;0.30;0.30;;;13.80;99.90;;;;;;5080386;28;20600;-80
2021/10/12 12:23:36;;;;;;;2.17;0.50;;;13.60;99.90;;;;;;5080400;28;20188;-80
2021/10/12 12:26:05;;;;;;;0.40;0.40;;;13.50;99.90;;;;;;5072468;28;20290;-81
2021/10/12 12:28:31;;;;;;;0.37;0.37;;;13.50;99.90;;;;;;5083334;28;20197;-80
2021/10/12 12:30:57;;;;;;;0.33;0.20;;;13.40;99.90;;;;;;5078813;28;20206;-80
2021/10/12 12:33:24;;;;;;;0.37;0.37;;;13.40;99.90;;;;;;5097645;28;20276;-80
2021/10/12 12:35:52;;;;;;;0.20;0.20;;;13.30;99.90;;;;;;5072106;28;20712;-80
2021/10/12 12:38:32;;;;;;;0.20;0.20;;;13.20;99.90;;;;;;5083463;28;20222;-82
2021/10/12 12:40:58;;;;;;;0.13;0.13;;;13.10;99.90;;;;;;5087571;28;20202;-82
2021/10/12 12:43:29;;;;;;;0.10;0.10;;;13.10;99.90;;;;;;5088523;28;20306;-82
2021/10/12 12:46:15;;;;;;;0.27;0.27;;;13.10;99.90;;;;;;5097212;28;20749;-82
2021/10/12 12:48:43;;;;;;;0.30;0.30;;;13.10;99.90;;;;;;5091532;28;20187;-81
2021/10/12 12:51:10;;;;;;;0.43;0.43;;;13.10;99.90;;;;;;5083448;28;20233;-82
2021/10/12 12:53:47;;;;;;;0.40;0.30;;;13.20;99.90;;;;;;5079802;28;20192;-81